Time,TemperatureF,DewpointF,PressureIn,WindDirection,WindDirectionDegrees,WindSpeedMPH,WindSpeedGustMPH,Humidity,HourlyPrecipIn,Conditions,Clouds,dailyrainin,SoftwareType,DateUTC
2013-09-05 00:02:00,64.1,52.9,30.10,SW,223,0.0,0.0,67,0.00,RA,,0.00,WeatherDisplay:10.37,2013-09-05 05:02:00,
2013-09-05 00:07:00,64.4,53.2,30.10,SW,225,0.0,0.0,67,0.00,RA,,0.00,WeatherDisplay:10.37,2013-09-05 05:07:00,
2013-09-05 00:12:00,64.9,54.1,30.10,SW,225,0.0,0.0,68,0.00,CLR,,0.00,WeatherDisplay:10.37,2013-09-05 05:12:00,
2013-09-05 00:17:00,65.2,54.8,30.10,SW,225,0.0,0.0,69,0.00,CLR,,0.00,WeatherDisplay:10.37,2013-09-05 05:17:00,
2013-09-05 00:22:00,65.4,55.0,30.10,SW,225,0.0,0.0,69,0.00,CLR,,0.00,WeatherDisplay:10.37,2013-09-05 05:22:00,
2013-09-05 00:27:00,65.4,55.4,30.10,SW,225,0.0,0.0,70,0.00,CLR,,0.00,WeatherDisplay:10.37,2013-09-05 05:27:00,
2013-09-05 00:32:00,65.4,55.4,30.10,SW,225,0.0,0.0,70,0.00,CLR,,0.00,WeatherDisplay:10.37,2013-09-05 05:32:00,
2013-09-05 00:37:00,65.1,55.1,30.10,SW,225,0.0,0.0,70,0.00,CLR,,0.00,WeatherDisplay:10.37,2013-09-05 05:37:00,
2013-09-05 00:42:00,64.9,54.9,30.10,SW,225,0.0,0.0,70,0.00,CLR,,0.00,WeatherDisplay:10.37,2013-09-05 05:42:00,
2013-09-05 00:47:00,64.7,54.7,30.11,SW,225,0.0,0.0,70,0.00,CLR,,0.00,WeatherDisplay:10.37,2013-09-05 05:47:00,
2013-09-05 00:52:00,64.7,54.7,30.10,SW,225,0.0,0.0,70,0.00,CLR,,0.00,WeatherDisplay:10.37,2013-09-05 05:52:00,
2013-09-05 00:57:00,64.7,54.7,30.11,SW,225,0.0,0.0,70,0.00,CLR,,0.00,WeatherDisplay:10.37,2013-09-05 05:57:00,
2013-09-05 01:02:00,64.6,54.6,30.10,SW,225,0.0,0.0,70,0.00,CLR,,0.00,WeatherDisplay:10.37,2013-09-05 06:02:00,
2013-09-05 01:07:00,64.5,54.5,30.10,SW,225,0.0,0.0,70,0.00,CLR,,0.00,WeatherDisplay:10.37,2013-09-05 06:07:00,
2013-09-05 01:12:00,64.4,54.4,30.11,SW,225,0.0,0.0,70,0.00,CLR,,0.00,WeatherDisplay:10.37,2013-09-05 06:12:00,
2013-09-05 01:17:00,64.2,53.8,30.11,SW,225,0.0,0.0,69,0.00,CLR,,0.00,WeatherDisplay:10.37,2013-09-05 06:17:00,
2013-09-05 01:22:00,64.0,53.6,30.11,SW,225,0.0,0.0,69,0.00,CLR,,0.00,WeatherDisplay:10.37,2013-09-05 06:22:00,
2013-09-05 01:27:00,63.5,53.5,30.11,SW,225,0.0,0.0,70,0.00,CLR,,0.00,WeatherDisplay:10.37,2013-09-05 06:27:00,
2013-09-05 01:32:00,63.1,52.8,30.11,SW,225,0.0,0.0,69,0.00,CLR,,0.00,WeatherDisplay:10.37,2013-09-05 06:32:00,
2013-09-05 01:37:00,62.9,52.6,30.11,SW,225,0.0,0.0,69,0.00,CLR,,0.00,WeatherDisplay:10.37,2013-09-05 06:37:00,
2013-09-05 01:42:00,62.6,52.3,30.11,SW,225,0.0,0.0,69,0.00,CLR,,0.00,WeatherDisplay:10.37,2013-09-05 06:42:00,
2013-09-05 01:47:00,62.5,51.8,30.11,SW,225,0.0,0.0,68,0.00,CLR,,0.00,WeatherDisplay:10.37,2013-09-05 06:47:00,
2013-09-05 01:52:00,62.4,51.7,30.12,SW,225,0.0,0.0,68,0.00,CLR,,0.00,WeatherDisplay:10.37,2013-09-05 06:52:00,
2013-09-05 01:57:00,62.6,51.5,30.11,SW,225,0.0,0.0,67,0.00,CLR,,0.00,WeatherDisplay:10.37,2013-09-05 06:57:00,
2013-09-05 02:02:00,62.7,51.6,30.11,SW,225,0.0,0.0,67,0.00,CLR,,0.00,WeatherDisplay:10.37,2013-09-05 07:02:00,
2013-09-05 02:08:00,62.9,51.8,30.11,SW,225,0.0,0.0,67,0.00,CLR,,0.00,WeatherDisplay:10.37,2013-09-05 07:08:00,
2013-09-05 02:13:00,62.9,51.8,30.11,SW,225,0.0,0.0,67,0.00,CLR,,0.00,WeatherDisplay:10.37,2013-09-05 07:13:00,
2013-09-05 02:18:00,62.7,51.6,30.12,SW,225,0.0,0.0,67,0.00,CLR,,0.00,WeatherDisplay:10.37,2013-09-05 07:18:00,
2013-09-05 02:23:00,62.5,51.4,30.12,SW,225,0.0,0.0,67,0.00,CLR,,0.00,WeatherDisplay:10.37,2013-09-05 07:23:00,
2013-09-05 02:28:00,62.3,51.2,30.12,SW,225,0.0,0.0,67,0.00,CLR,,0.00,WeatherDisplay:10.37,2013-09-05 07:28:00,
2013-09-05 02:33:00,62.0,50.9,30.12,SW,225,0.0,0.0,67,0.00,CLR,,0.00,WeatherDisplay:10.37,2013-09-05 07:33:00,
2013-09-05 02:38:00,61.8,50.7,30.12,SW,225,0.0,0.0,67,0.00,CLR,,0.00,WeatherDisplay:10.37,2013-09-05 07:38:00,
2013-09-05 02:43:00,61.6,50.5,30.12,SW,225,0.0,0.0,67,0.00,CLR,,0.00,WeatherDisplay:10.37,2013-09-05 07:43:00,
2013-09-05 02:48:00,61.5,50.0,30.12,SW,225,0.0,0.0,66,0.00,CLR,,0.00,WeatherDisplay:10.37,2013-09-05 07:48:00,
2013-09-05 02:53:00,61.4,49.9,30.12,SW,225,0.0,0.0,66,0.00,CLR,,0.00,WeatherDisplay:10.37,2013-09-05 07:53:00,
2013-09-05 02:58:00,61.4,49.9,30.12,SW,225,0.0,0.0,66,0.00,CLR,,0.00,WeatherDisplay:10.37,2013-09-05 07:58:00,
2013-09-05 03:03:00,61.4,49.9,30.12,SW,225,0.0,0.0,66,0.00,CLR,,0.00,WeatherDisplay:10.37,2013-09-05 08:03:00,
2013-09-05 03:08:00,61.4,49.9,30.12,SW,225,0.0,0.0,66,0.00,CLR,,0.00,WeatherDisplay:10.37,2013-09-05 08:08:00,
2013-09-05 03:13:00,61.3,49.4,30.12,SW,225,0.0,0.0,65,0.00,CLR,,0.00,WeatherDisplay:10.37,2013-09-05 08:13:00,
2013-09-05 03:18:00,61.3,49.4,30.13,SW,225,0.0,0.0,65,0.00,CLR,,0.00,WeatherDisplay:10.37,2013-09-05 08:18:00,
2013-09-05 03:23:00,61.2,49.3,30.13,SW,225,0.0,0.0,65,0.00,CLR,,0.00,WeatherDisplay:10.37,2013-09-05 08:23:00,
2013-09-05 03:28:00,61.2,49.3,30.13,SW,225,0.0,0.0,65,0.00,CLR,,0.00,WeatherDisplay:10.37,2013-09-05 08:28:00,
2013-09-05 03:33:00,61.1,49.2,30.13,SW,225,0.0,0.0,65,0.00,CLR,,0.00,WeatherDisplay:10.37,2013-09-05 08:33:00,
2013-09-05 03:38:00,61.1,49.2,30.13,SW,225,0.0,0.0,65,0.00,CLR,,0.00,WeatherDisplay:10.37,2013-09-05 08:38:00,
2013-09-05 03:43:00,61.1,49.2,30.13,SW,225,0.0,0.0,65,0.00,CLR,,0.00,WeatherDisplay:10.37,2013-09-05 08:43:00,
2013-09-05 03:48:00,61.1,49.2,30.13,SW,225,0.0,0.0,65,0.00,CLR,,0.00,WeatherDisplay:10.37,2013-09-05 08:48:00,
2013-09-05 03:53:00,61.1,49.2,30.13,SW,225,0.0,0.0,65,0.00,CLR,,0.00,WeatherDisplay:10.37,2013-09-05 08:53:00,
2013-09-05 03:58:00,61.1,49.2,30.13,SW,225,0.0,0.0,65,0.00,CLR,,0.00,WeatherDisplay:10.37,2013-09-05 08:58:00,
2013-09-05 04:03:00,61.2,49.3,30.13,SW,225,0.0,0.0,65,0.00,CLR,,0.00,WeatherDisplay:10.37,2013-09-05 09:03:00,
2013-09-05 04:08:00,61.4,49.5,30.13,SW,225,0.0,0.0,65,0.00,CLR,,0.00,WeatherDisplay:10.37,2013-09-05 09:08:00,
2013-09-05 04:13:00,61.5,49.2,30.13,SW,225,0.0,0.0,64,0.00,CLR,,0.00,WeatherDisplay:10.37,2013-09-05 09:13:00,
2013-09-05 04:18:00,61.7,49.4,30.13,SW,225,0.0,0.0,64,0.00,CLR,,0.00,WeatherDisplay:10.37,2013-09-05 09:18:00,
2013-09-05 04:23:00,61.9,49.6,30.13,SW,225,0.0,0.0,64,0.00,CLR,,0.00,WeatherDisplay:10.37,2013-09-05 09:23:00,
2013-09-05 04:28:00,62.0,49.7,30.13,SW,225,0.0,0.0,64,0.00,CLR,,0.00,WeatherDisplay:10.37,2013-09-05 09:28:00,
2013-09-05 04:33:00,62.3,50.0,30.13,SW,225,0.0,0.0,64,0.00,CLR,,0.00,WeatherDisplay:10.37,2013-09-05 09:33:00,
2013-09-05 04:38:00,62.5,50.2,30.13,SW,225,0.0,0.0,64,0.00,CLR,,0.00,WeatherDisplay:10.37,2013-09-05 09:38:00,
2013-09-05 04:43:00,62.5,50.2,30.13,SW,225,0.0,0.0,64,0.00,CLR,,0.00,WeatherDisplay:10.37,2013-09-05 09:43:00,
2013-09-05 04:48:00,62.6,50.2,30.13,SW,225,0.0,0.0,64,0.00,CLR,,0.00,WeatherDisplay:10.37,2013-09-05 09:48:00,
2013-09-05 04:53:00,62.7,50.3,30.13,SW,225,0.0,0.0,64,0.00,CLR,,0.00,WeatherDisplay:10.37,2013-09-05 09:53:00,
2013-09-05 04:58:00,62.8,50.4,30.13,SW,225,0.0,0.0,64,0.00,CLR,,0.00,WeatherDisplay:10.37,2013-09-05 09:58:00,
2013-09-05 05:03:00,62.9,50.5,30.13,SW,225,0.0,0.0,64,0.00,CLR,,0.00,WeatherDisplay:10.37,2013-09-05 10:03:00,
2013-09-05 05:08:00,63.0,50.6,30.13,SW,225,0.0,0.0,64,0.00,CLR,,0.00,WeatherDisplay:10.37,2013-09-05 10:08:00,
2013-09-05 05:13:00,63.0,50.6,30.13,SW,225,0.0,0.0,64,0.00,CLR,,0.00,WeatherDisplay:10.37,2013-09-05 10:13:00,
2013-09-05 05:18:00,63.0,50.6,30.13,SW,225,0.0,0.0,64,0.00,CLR,,0.00,WeatherDisplay:10.37,2013-09-05 10:18:00,
2013-09-05 05:23:00,62.8,50.9,30.13,SW,225,0.0,0.0,65,0.00,CLR,,0.00,WeatherDisplay:10.37,2013-09-05 10:23:00,
2013-09-05 05:28:00,62.8,50.9,30.13,SW,225,0.0,0.0,65,0.00,CLR,,0.00,WeatherDisplay:10.37,2013-09-05 10:28:00,
2013-09-05 05:33:00,62.7,50.8,30.13,SW,225,0.0,0.0,65,0.00,CLR,,0.00,WeatherDisplay:10.37,2013-09-05 10:33:00,
2013-09-05 05:38:00,62.6,50.7,30.13,SW,225,0.0,0.0,65,0.00,CLR,,0.00,WeatherDisplay:10.37,2013-09-05 10:38:00,
2013-09-05 05:43:00,62.5,50.6,30.13,SW,225,0.0,0.0,65,0.00,CLR,,0.00,WeatherDisplay:10.37,2013-09-05 10:43:00,
2013-09-05 05:48:00,62.3,50.4,30.13,SW,225,0.0,0.0,65,0.00,CLR,,0.00,WeatherDisplay:10.37,2013-09-05 10:48:00,
2013-09-05 05:53:00,62.1,50.2,30.13,SW,225,0.0,0.0,65,0.00,CLR,,0.00,WeatherDisplay:10.37,2013-09-05 10:53:00,
2013-09-05 05:58:00,62.0,50.1,30.13,SW,225,0.0,0.0,65,0.00,CLR,,0.00,WeatherDisplay:10.37,2013-09-05 10:58:00,
2013-09-05 06:03:00,62.0,50.1,30.13,SW,225,0.0,0.0,65,0.00,CLR,,0.00,WeatherDisplay:10.37,2013-09-05 11:03:00,
2013-09-05 06:08:00,62.0,50.1,30.13,SW,225,0.0,0.0,65,0.00,CLR,,0.00,WeatherDisplay:10.37,2013-09-05 11:08:00,
2013-09-05 06:13:00,62.0,50.1,30.13,SW,225,0.0,0.0,65,0.00,CLR,,0.00,WeatherDisplay:10.37,2013-09-05 11:13:00,
2013-09-05 06:18:00,61.9,50.0,30.14,SW,225,0.0,0.0,65,0.00,CLR,,0.00,WeatherDisplay:10.37,2013-09-05 11:18:00,
2013-09-05 06:23:00,61.9,50.0,30.14,SW,225,0.0,0.0,65,0.00,CLR,,0.00,WeatherDisplay:10.37,2013-09-05 11:23:00,
2013-09-05 06:28:00,61.6,49.7,30.14,SW,225,0.0,0.0,65,0.00,CLR,,0.00,WeatherDisplay:10.37,2013-09-05 11:28:00,
2013-09-05 06:33:00,61.4,49.5,30.14,SW,225,0.0,0.0,65,0.00,CLR,,0.00,WeatherDisplay:10.37,2013-09-05 11:33:00,
2013-09-05 06:38:00,61.2,49.3,30.14,SW,225,0.0,0.0,65,0.00,CLR,,0.00,WeatherDisplay:10.37,2013-09-05 11:38:00,
2013-09-05 06:43:00,61.0,49.1,30.14,SW,225,0.0,0.0,65,0.00,CLR,,0.00,WeatherDisplay:10.37,2013-09-05 11:43:00,
2013-09-05 06:48:00,60.9,49.1,30.15,SW,225,0.0,0.0,65,0.00,CLR,,0.00,WeatherDisplay:10.37,2013-09-05 11:48:00,
2013-09-05 06:53:00,60.9,49.1,30.15,SW,225,0.0,0.0,65,0.00,CLR,,0.00,WeatherDisplay:10.37,2013-09-05 11:53:00,
2013-09-05 06:58:00,60.9,49.1,30.14,SW,225,0.0,0.0,65,0.00,CLR,,0.00,WeatherDisplay:10.37,2013-09-05 11:58:00,
2013-09-05 07:03:00,60.9,49.1,30.14,SW,225,0.0,0.0,65,0.00,CLR,,0.00,WeatherDisplay:10.37,2013-09-05 12:03:00,
2013-09-05 07:08:00,61.1,48.8,30.14,SW,225,0.0,0.0,64,0.00,CLR,,0.00,WeatherDisplay:10.37,2013-09-05 12:08:00,
2013-09-05 07:13:00,61.3,49.0,30.15,SW,225,0.0,0.0,64,0.00,CLR,,0.00,WeatherDisplay:10.37,2013-09-05 12:13:00,
2013-09-05 07:18:00,61.4,49.1,30.14,SW,225,0.0,0.0,64,0.00,CLR,,0.00,WeatherDisplay:10.37,2013-09-05 12:18:00,
2013-09-05 07:23:00,61.7,49.4,30.15,SW,225,0.0,0.0,64,0.00,CLR,,0.00,WeatherDisplay:10.37,2013-09-05 12:23:00,
2013-09-05 07:28:00,62.0,49.7,30.15,SW,225,0.0,0.0,64,0.00,CLR,,0.00,WeatherDisplay:10.37,2013-09-05 12:28:00,
2013-09-05 07:33:00,62.5,50.2,30.15,SW,225,0.0,0.0,64,0.00,CLR,,0.00,WeatherDisplay:10.37,2013-09-05 12:33:00,
2013-09-05 07:38:00,62.7,50.3,30.15,SW,225,0.0,0.0,64,0.00,CLR,,0.00,WeatherDisplay:10.37,2013-09-05 12:38:00,
2013-09-05 07:43:00,63.0,50.6,30.15,SW,225,0.0,0.0,64,0.00,CLR,,0.00,WeatherDisplay:10.37,2013-09-05 12:43:00,
2013-09-05 07:48:00,63.5,51.1,30.15,SW,225,0.0,0.0,64,0.00,CLR,,0.00,WeatherDisplay:10.37,2013-09-05 12:48:00,
2013-09-05 07:53:00,64.1,51.7,30.15,SW,225,0.0,0.0,64,0.00,CLR,,0.00,WeatherDisplay:10.37,2013-09-05 12:53:00,
2013-09-05 07:58:00,64.9,52.4,30.15,SW,225,0.0,0.0,64,0.00,CLR,,0.00,WeatherDisplay:10.37,2013-09-05 12:58:00,
2013-09-05 08:03:00,65.4,52.9,30.15,SW,225,0.0,0.0,64,0.00,CLR,,0.00,WeatherDisplay:10.37,2013-09-05 13:03:00,
2013-09-05 08:08:00,65.7,53.6,30.16,SW,225,0.0,0.0,65,0.00,CLR,,0.00,WeatherDisplay:10.37,2013-09-05 13:08:00,
2013-09-05 08:13:00,65.8,54.1,30.16,SW,225,0.0,0.0,66,0.00,CLR,,0.00,WeatherDisplay:10.37,2013-09-05 13:13:00,
2013-09-05 08:18:00,66.2,54.5,30.16,SW,225,0.0,0.0,66,0.00,CLR,,0.00,WeatherDisplay:10.37,2013-09-05 13:18:00,
2013-09-05 08:23:00,66.5,55.2,30.16,SW,225,0.0,0.0,67,0.00,CLR,,0.00,WeatherDisplay:10.37,2013-09-05 13:23:00,
2013-09-05 08:28:00,66.9,55.6,30.16,SW,225,0.0,0.0,67,0.00,CLR,,0.00,WeatherDisplay:10.37,2013-09-05 13:28:00,
2013-09-05 08:33:00,67.5,56.6,30.15,SW,230,0.0,0.0,68,0.00,CLR,,0.00,WeatherDisplay:10.37,2013-09-05 13:33:00,
2013-09-05 08:38:00,68.0,57.0,30.16,SW,235,0.0,0.0,68,0.00,CLR,,0.00,WeatherDisplay:10.37,2013-09-05 13:38:00,
2013-09-05 08:43:00,68.6,58.0,30.16,SW,236,0.0,0.0,69,0.00,CLR,,0.00,WeatherDisplay:10.37,2013-09-05 13:43:00,
2013-09-05 08:48:00,69.1,58.9,30.16,WSW,242,0.0,0.0,70,0.00,CLR,,0.00,WeatherDisplay:10.37,2013-09-05 13:48:00,
2013-09-05 08:53:00,69.5,59.3,30.16,WSW,242,0.0,0.0,70,0.00,CLR,,0.00,WeatherDisplay:10.37,2013-09-05 13:53:00,
2013-09-05 08:58:00,70.2,60.0,30.16,WSW,242,0.0,0.0,70,0.00,CLR,,0.00,WeatherDisplay:10.37,2013-09-05 13:58:00,
2013-09-05 09:03:00,70.8,60.9,30.16,WSW,242,0.0,0.0,71,0.00,CLR,,0.00,WeatherDisplay:10.37,2013-09-05 14:03:00,
2013-09-05 09:08:00,71.3,61.4,30.16,WSW,242,0.0,0.0,71,0.00,CLR,,0.00,WeatherDisplay:10.37,2013-09-05 14:08:00,
2013-09-05 09:13:00,71.9,62.0,30.16,NNW,333,0.0,0.0,71,0.00,CLR,,0.00,WeatherDisplay:10.37,2013-09-05 14:13:00,
2013-09-05 09:18:00,72.1,62.2,30.16,NNE,18,1.2,0.0,71,0.00,CLR,,0.00,WeatherDisplay:10.37,2013-09-05 14:18:00,
2013-09-05 09:23:00,72.4,62.5,30.16,NNE,17,0.0,0.0,71,0.00,CLR,,0.00,WeatherDisplay:10.37,2013-09-05 14:23:00,
2013-09-05 09:28:00,72.3,62.4,30.16,NNE,17,0.0,0.0,71,0.00,CLR,,0.00,WeatherDisplay:10.37,2013-09-05 14:28:00,
2013-09-05 09:33:00,72.4,62.5,30.17,NNE,19,0.0,0.0,71,0.00,CLR,,0.00,WeatherDisplay:10.37,2013-09-05 14:33:00,
2013-09-05 09:38:00,72.6,62.3,30.17,North,351,0.0,0.0,70,0.00,CLR,,0.00,WeatherDisplay:10.37,2013-09-05 14:38:00,
2013-09-05 09:43:00,73.1,62.7,30.17,North,5,0.0,0.0,70,0.00,CLR,,0.00,WeatherDisplay:10.37,2013-09-05 14:43:00,
2013-09-05 09:48:00,73.8,63.0,30.17,NW,325,1.0,0.0,69,0.00,CLR,,0.00,WeatherDisplay:10.37,2013-09-05 14:48:00,
2013-09-05 09:53:00,74.1,62.9,30.17,NNE,17,0.0,0.0,68,0.00,CLR,,0.00,WeatherDisplay:10.37,2013-09-05 14:53:00,
2013-09-05 09:58:00,74.3,63.1,30.17,NNE,17,0.0,0.0,68,0.00,CLR,,0.00,WeatherDisplay:10.37,2013-09-05 14:58:00,
2013-09-05 10:03:00,75.1,63.8,30.17,NNE,17,0.0,0.0,68,0.00,CLR,,0.00,WeatherDisplay:10.37,2013-09-05 15:03:00,
2013-09-05 10:08:00,75.8,63.6,30.17,NW,323,0.0,0.0,66,0.00,CLR,,0.00,WeatherDisplay:10.37,2013-09-05 15:08:00,
2013-09-05 10:13:00,75.9,63.3,30.17,NW,313,0.0,0.0,65,0.00,CLR,,0.00,WeatherDisplay:10.37,2013-09-05 15:13:00,
2013-09-05 10:18:00,76.1,63.5,30.17,NNW,338,0.0,0.0,65,0.00,CLR,,0.00,WeatherDisplay:10.37,2013-09-05 15:18:00,
2013-09-05 10:23:00,76.4,63.8,30.17,NNW,338,0.0,0.0,65,0.00,CLR,,0.00,WeatherDisplay:10.37,2013-09-05 15:23:00,
2013-09-05 10:28:00,77.0,63.4,30.17,NNE,31,1.2,0.0,63,0.00,CLR,,0.00,WeatherDisplay:10.37,2013-09-05 15:28:00,
2013-09-05 10:33:00,77.6,63.1,30.17,NNW,342,0.0,0.0,61,0.00,CLR,,0.00,WeatherDisplay:10.37,2013-09-05 15:33:00,
2013-09-05 10:38:00,78.1,63.1,30.17,NNW,341,0.0,0.0,60,0.00,CLR,,0.00,WeatherDisplay:10.37,2013-09-05 15:38:00,
2013-09-05 10:43:00,78.7,63.2,30.17,NNW,338,0.0,0.0,59,0.00,CLR,,0.00,WeatherDisplay:10.37,2013-09-05 15:43:00,
2013-09-05 10:48:00,78.9,63.4,30.17,NNW,337,0.0,0.0,59,0.00,CLR,,0.00,WeatherDisplay:10.37,2013-09-05 15:48:00,
2013-09-05 10:53:00,78.9,62.9,30.17,NW,326,0.0,0.0,58,0.00,CLR,,0.00,WeatherDisplay:10.37,2013-09-05 15:53:00,
2013-09-05 10:58:00,79.3,63.7,30.17,North,5,0.0,0.0,59,0.00,CLR,,0.00,WeatherDisplay:10.37,2013-09-05 15:58:00,
2013-09-05 11:03:00,80.2,63.1,30.17,North,360,0.0,0.0,56,0.00,CLR,,0.00,WeatherDisplay:10.37,2013-09-05 16:03:00,
2013-09-05 11:08:00,80.9,62.7,30.17,NNW,341,0.0,0.0,54,0.00,CLR,,0.00,WeatherDisplay:10.37,2013-09-05 16:08:00,
2013-09-05 11:13:00,81.3,62.5,30.17,East,95,1.2,0.0,53,0.00,CLR,,0.00,WeatherDisplay:10.37,2013-09-05 16:13:00,
2013-09-05 11:18:00,81.4,63.2,30.17,NE,36,0.0,0.0,54,0.00,CLR,,0.00,WeatherDisplay:10.37,2013-09-05 16:18:00,
2013-09-05 11:23:00,81.5,63.3,30.17,NE,41,0.0,0.0,54,0.00,CLR,,0.00,WeatherDisplay:10.37,2013-09-05 16:23:00,
2013-09-05 11:28:00,82.3,64.0,30.17,NE,43,0.0,0.0,54,0.00,CLR,,0.00,WeatherDisplay:10.37,2013-09-05 16:28:00,
2013-09-05 11:33:00,82.4,63.0,30.17,North,360,0.0,0.0,52,0.00,CLR,,0.00,WeatherDisplay:10.37,2013-09-05 16:33:00,
2013-09-05 11:38:00,82.3,63.5,30.17,North,360,0.0,0.0,53,0.00,CLR,,0.00,WeatherDisplay:10.37,2013-09-05 16:38:00,
2013-09-05 11:43:00,82.5,64.2,30.17,East,94,0.0,0.0,54,0.00,CLR,,0.00,WeatherDisplay:10.37,2013-09-05 16:43:00,
2013-09-05 11:48:00,82.7,63.8,30.17,NE,38,0.0,0.0,53,0.00,CLR,,0.00,WeatherDisplay:10.37,2013-09-05 16:48:00,
2013-09-05 11:53:00,82.1,63.8,30.17,ESE,116,0.0,0.0,54,0.00,CLR,,0.00,WeatherDisplay:10.37,2013-09-05 16:53:00,
2013-09-05 11:58:00,82.2,63.9,30.17,NW,307,0.0,0.0,54,0.00,CLR,,0.00,WeatherDisplay:10.37,2013-09-05 16:58:00,
2013-09-05 12:03:00,82.4,64.1,30.17,NW,304,0.0,0.0,54,0.00,CLR,,0.00,WeatherDisplay:10.37,2013-09-05 17:03:00,
2013-09-05 12:08:00,82.4,63.5,30.17,West,261,0.0,0.0,53,0.00,CLR,,0.00,WeatherDisplay:10.37,2013-09-05 17:08:00,
2013-09-05 12:13:00,82.7,63.8,30.17,WSW,238,1.2,0.0,53,0.00,CLR,,0.00,WeatherDisplay:10.37,2013-09-05 17:13:00,
2013-09-05 12:18:00,82.7,63.8,30.17,ESE,109,0.0,0.0,53,0.00,CLR,,0.00,WeatherDisplay:10.37,2013-09-05 17:18:00,
2013-09-05 12:23:00,82.7,64.4,30.17,ESE,121,0.0,0.0,54,0.00,CLR,,0.00,WeatherDisplay:10.37,2013-09-05 17:23:00,
2013-09-05 12:28:00,82.7,64.9,30.17,ESE,107,0.0,0.0,55,0.00,CLR,,0.00,WeatherDisplay:10.37,2013-09-05 17:28:00,
2013-09-05 12:33:00,82.8,64.5,30.17,SE,137,0.0,0.0,54,0.00,CLR,,0.00,WeatherDisplay:10.37,2013-09-05 17:33:00,
2013-09-05 12:38:00,82.8,64.5,30.17,SSE,161,1.2,0.0,54,0.00,CLR,,0.00,WeatherDisplay:10.37,2013-09-05 17:38:00,
2013-09-05 12:43:00,82.9,65.1,30.17,SSE,165,0.0,0.0,55,0.00,CLR,,0.00,WeatherDisplay:10.37,2013-09-05 17:43:00,
2013-09-05 12:48:00,83.1,64.7,30.17,SE,128,0.0,0.2,54,0.00,CLR,,0.00,WeatherDisplay:10.37,2013-09-05 17:48:00,
2013-09-05 12:54:00,83.4,65.0,30.17,East,88,1.2,0.0,54,0.00,CLR,,0.00,WeatherDisplay:10.37,2013-09-05 17:54:00,
2013-09-05 12:59:00,83.0,64.6,30.16,East,94,0.0,0.0,54,0.00,CLR,,0.00,WeatherDisplay:10.37,2013-09-05 17:59:00,
2013-09-05 13:04:00,83.1,64.2,30.16,SSE,153,0.0,0.0,53,0.00,CLR,,0.00,WeatherDisplay:10.37,2013-09-05 18:04:00,
2013-09-05 13:09:00,82.6,63.7,30.16,ESE,112,0.0,0.0,53,0.00,CLR,,0.00,WeatherDisplay:10.37,2013-09-05 18:09:00,
2013-09-05 13:14:00,82.7,64.4,30.16,ESE,111,0.0,0.0,54,0.00,CLR,,0.00,WeatherDisplay:10.37,2013-09-05 18:14:00,
2013-09-05 13:19:00,83.7,65.3,30.16,East,94,1.2,0.0,54,0.00,CLR,,0.00,WeatherDisplay:10.37,2013-09-05 18:19:00,
2013-09-05 13:24:00,84.0,65.0,30.16,North,5,0.0,0.0,53,0.00,CLR,,0.00,WeatherDisplay:10.37,2013-09-05 18:24:00,
2013-09-05 13:29:00,84.3,64.8,30.16,NNE,17,0.0,0.0,52,0.00,CLR,,0.00,WeatherDisplay:10.37,2013-09-05 18:29:00,
2013-09-05 13:34:00,83.7,63.7,30.16,NNW,346,0.0,0.0,51,0.00,CLR,,0.00,WeatherDisplay:10.37,2013-09-05 18:34:00,
2013-09-05 13:39:00,83.7,64.2,30.16,NNW,342,0.0,0.0,52,0.00,CLR,,0.00,WeatherDisplay:10.37,2013-09-05 18:39:00,
2013-09-05 13:44:00,84.4,65.4,30.16,ESE,115,0.0,0.0,53,0.00,CLR,,0.00,WeatherDisplay:10.37,2013-09-05 18:44:00,
2013-09-05 13:49:00,84.2,64.7,30.15,ESE,114,0.0,0.0,52,0.00,CLR,,0.00,WeatherDisplay:10.37,2013-09-05 18:49:00,
2013-09-05 13:54:00,83.8,65.4,30.15,ESE,117,0.0,0.0,54,0.00,CLR,,0.00,WeatherDisplay:10.37,2013-09-05 18:54:00,
2013-09-05 13:59:00,83.7,64.8,30.15,ESE,120,0.0,0.0,53,0.00,CLR,,0.00,WeatherDisplay:10.37,2013-09-05 18:59:00,
2013-09-05 14:04:00,83.5,64.6,30.15,SE,132,0.0,0.0,53,0.00,CLR,,0.00,WeatherDisplay:10.37,2013-09-05 19:04:00,
2013-09-05 14:09:00,83.6,64.7,30.15,SE,140,0.0,0.0,53,0.00,CLR,,0.00,WeatherDisplay:10.37,2013-09-05 19:09:00,
2013-09-05 14:14:00,83.3,64.4,30.15,SE,140,0.0,0.0,53,0.00,CLR,,0.00,WeatherDisplay:10.37,2013-09-05 19:14:00,
2013-09-05 14:19:00,83.7,64.8,30.15,WSW,246,0.0,0.0,53,0.00,CLR,,0.00,WeatherDisplay:10.37,2013-09-05 19:19:00,
2013-09-05 14:24:00,84.4,65.4,30.14,WSW,245,0.0,0.0,53,0.00,CLR,,0.00,WeatherDisplay:10.37,2013-09-05 19:24:00,
2013-09-05 14:29:00,84.9,65.9,30.14,SE,146,0.0,0.0,53,0.00,CLR,,0.00,WeatherDisplay:10.37,2013-09-05 19:29:00,
2013-09-05 14:34:00,84.7,65.7,30.14,ESE,115,0.0,0.0,53,0.00,CLR,,0.00,WeatherDisplay:10.37,2013-09-05 19:34:00,
2013-09-05 14:39:00,84.5,65.5,30.14,South,181,0.0,0.0,53,0.00,CLR,,0.00,WeatherDisplay:10.37,2013-09-05 19:39:00,
2013-09-05 14:44:00,84.3,65.3,30.14,East,86,0.0,0.0,53,0.00,CLR,,0.00,WeatherDisplay:10.37,2013-09-05 19:44:00,
2013-09-05 14:49:00,84.4,65.9,30.14,East,79,5.8,5.8,54,0.00,CLR,,0.00,WeatherDisplay:10.37,2013-09-05 19:49:00,
2013-09-05 14:54:00,84.4,65.4,30.14,East,96,0.0,0.0,53,0.00,CLR,,0.00,WeatherDisplay:10.37,2013-09-05 19:54:00,
2013-09-05 14:59:00,84.6,65.6,30.13,SSE,164,0.0,0.0,53,0.00,CLR,,0.00,WeatherDisplay:10.37,2013-09-05 19:59:00,
2013-09-05 15:04:00,84.7,65.1,30.13,South,186,4.6,4.6,52,0.00,CLR,,0.00,WeatherDisplay:10.37,2013-09-05 20:04:00,
2013-09-05 15:09:00,84.5,65.5,30.13,South,184,0.0,0.0,53,0.00,CLR,,0.00,WeatherDisplay:10.37,2013-09-05 20:09:00,
2013-09-05 15:14:00,85.3,66.2,30.13,ENE,74,0.0,0.0,53,0.00,CLR,,0.00,WeatherDisplay:10.37,2013-09-05 20:14:00,
2013-09-05 15:19:00,85.4,65.2,30.13,ESE,103,0.0,0.0,51,0.00,CLR,,0.00,WeatherDisplay:10.37,2013-09-05 20:19:00,
2013-09-05 15:24:00,85.0,65.4,30.13,NNE,33,0.0,0.0,52,0.00,CLR,,0.00,WeatherDisplay:10.37,2013-09-05 20:24:00,
2013-09-05 15:29:00,85.2,65.6,30.13,SSE,155,0.0,0.0,52,0.00,CLR,,0.00,WeatherDisplay:10.37,2013-09-05 20:29:00,
2013-09-05 15:34:00,84.7,65.7,30.13,East,96,0.0,0.0,53,0.00,CLR,,0.00,WeatherDisplay:10.37,2013-09-05 20:34:00,
2013-09-05 15:39:00,84.8,65.2,30.13,East,96,0.0,0.0,52,0.00,CLR,,0.00,WeatherDisplay:10.37,2013-09-05 20:39:00,
2013-09-05 15:44:00,85.2,65.6,30.13,East,95,0.0,0.0,52,0.00,CLR,,0.00,WeatherDisplay:10.37,2013-09-05 20:44:00,
2013-09-05 15:49:00,86.1,66.4,30.13,West,260,0.0,0.0,52,0.00,CLR,,0.00,WeatherDisplay:10.37,2013-09-05 20:49:00,
2013-09-05 15:54:00,86.1,66.4,30.12,West,278,0.0,0.0,52,0.00,CLR,,0.00,WeatherDisplay:10.37,2013-09-05 20:54:00,
2013-09-05 15:59:00,86.0,66.9,30.13,West,277,0.0,0.0,53,0.00,CLR,,0.00,WeatherDisplay:10.37,2013-09-05 20:59:00,
2013-09-05 16:04:00,86.1,66.4,30.12,West,272,0.0,0.0,52,0.00,CLR,,0.00,WeatherDisplay:10.37,2013-09-05 21:04:00,
2013-09-05 16:09:00,86.0,66.3,30.12,ESE,108,0.0,0.0,52,0.00,CLR,,0.00,WeatherDisplay:10.37,2013-09-05 21:09:00,
2013-09-05 16:14:00,85.8,66.1,30.12,ESE,103,0.0,0.0,52,0.00,CLR,,0.00,WeatherDisplay:10.37,2013-09-05 21:14:00,
2013-09-05 16:19:00,85.7,66.0,30.12,ESE,113,0.0,0.0,52,0.00,CLR,,0.00,WeatherDisplay:10.37,2013-09-05 21:19:00,
2013-09-05 16:24:00,85.5,65.9,30.12,ESE,123,0.0,0.0,52,0.00,CLR,,0.00,WeatherDisplay:10.37,2013-09-05 21:24:00,
2013-09-05 16:29:00,85.7,66.6,30.12,SE,128,0.0,0.0,53,0.00,CLR,,0.00,WeatherDisplay:10.37,2013-09-05 21:29:00,
2013-09-05 16:34:00,85.8,66.7,30.12,ESE,106,0.0,0.0,53,0.00,CLR,,0.00,WeatherDisplay:10.37,2013-09-05 21:34:00,
2013-09-05 16:39:00,85.3,66.2,30.12,ESE,104,0.0,0.0,53,0.00,CLR,,0.00,WeatherDisplay:10.37,2013-09-05 21:39:00,
2013-09-05 16:44:00,85.3,66.2,30.12,ESE,117,0.0,0.0,53,0.00,CLR,,0.00,WeatherDisplay:10.37,2013-09-05 21:44:00,
2013-09-05 16:49:00,85.3,66.2,30.12,SE,134,0.0,0.0,53,0.00,CLR,,0.00,WeatherDisplay:10.37,2013-09-05 21:49:00,
2013-09-05 16:54:00,85.4,66.9,30.12,ESE,115,0.0,0.0,54,0.00,CLR,,0.00,WeatherDisplay:10.37,2013-09-05 21:54:00,
2013-09-05 16:59:00,85.2,66.7,30.12,SSE,161,0.0,0.0,54,0.00,CLR,,0.00,WeatherDisplay:10.37,2013-09-05 21:59:00,
2013-09-05 17:04:00,84.5,67.1,30.12,SSW,213,0.0,0.0,56,0.00,CLR,,0.00,WeatherDisplay:10.37,2013-09-05 22:04:00,
2013-09-05 17:09:00,84.1,67.7,30.12,SSW,213,0.0,0.0,58,0.00,CLR,,0.00,WeatherDisplay:10.37,2013-09-05 22:09:00,
2013-09-05 17:14:00,83.9,67.5,30.12,SSW,211,0.0,0.0,58,0.00,CLR,,0.00,WeatherDisplay:10.37,2013-09-05 22:14:00,
2013-09-05 17:19:00,83.6,67.8,30.12,SSW,210,0.0,0.0,59,0.00,CLR,,0.00,WeatherDisplay:10.37,2013-09-05 22:19:00,
2013-09-05 17:24:00,83.2,67.9,30.12,SSW,211,0.0,0.0,60,0.00,CLR,,0.00,WeatherDisplay:10.37,2013-09-05 22:24:00,
2013-09-05 17:29:00,83.1,67.3,30.12,SSW,211,0.0,0.0,59,0.00,CLR,,0.00,WeatherDisplay:10.37,2013-09-05 22:29:00,
2013-09-05 17:34:00,82.9,67.1,30.12,SSW,210,0.0,0.0,59,0.00,CLR,,0.00,WeatherDisplay:10.37,2013-09-05 22:34:00,
2013-09-05 17:39:00,82.9,67.1,30.12,SSW,210,0.0,0.0,59,0.00,CLR,,0.00,WeatherDisplay:10.37,2013-09-05 22:39:00,
2013-09-05 17:44:00,83.0,66.7,30.12,SSW,211,0.0,0.0,58,0.00,CLR,,0.00,WeatherDisplay:10.37,2013-09-05 22:44:00,
2013-09-05 17:49:00,83.2,67.4,30.12,SSW,210,0.0,0.0,59,0.00,CLR,,0.00,WeatherDisplay:10.37,2013-09-05 22:49:00,
2013-09-05 17:54:00,83.3,67.5,30.12,SSW,211,0.0,0.0,59,0.00,CLR,,0.00,WeatherDisplay:10.37,2013-09-05 22:54:00,
2013-09-05 17:59:00,83.2,67.4,30.12,SSW,211,0.0,0.0,59,0.00,CLR,,0.00,WeatherDisplay:10.37,2013-09-05 22:59:00,
2013-09-05 18:04:00,82.7,69.7,30.12,East,99,0.0,0.0,65,0.00,CLR,,0.00,WeatherDisplay:10.37,2013-09-05 23:04:00,
2013-09-05 18:09:00,82.1,69.2,30.12,NNE,30,0.0,0.0,65,0.00,CLR,,0.00,WeatherDisplay:10.37,2013-09-05 23:09:00,
2013-09-05 18:14:00,81.6,68.7,30.12,NNE,30,0.0,0.0,65,0.00,CLR,,0.00,WeatherDisplay:10.37,2013-09-05 23:14:00,
2013-09-05 18:19:00,81.4,68.9,30.12,NNE,30,0.0,0.0,66,0.00,CLR,,0.00,WeatherDisplay:10.37,2013-09-05 23:19:00,
2013-09-05 18:24:00,81.3,68.9,30.12,NNE,30,0.0,0.0,66,0.00,CLR,,0.00,WeatherDisplay:10.37,2013-09-05 23:24:00,
2013-09-05 18:29:00,81.2,68.8,30.12,NE,52,0.0,0.0,66,0.00,CLR,,0.00,WeatherDisplay:10.37,2013-09-05 23:29:00,
2013-09-05 18:34:00,80.8,68.8,30.12,NE,52,0.0,0.0,67,0.00,CLR,,0.00,WeatherDisplay:10.37,2013-09-05 23:34:00,
2013-09-05 18:39:00,80.5,69.0,30.12,NE,52,0.0,0.0,68,0.00,CLR,,0.00,WeatherDisplay:10.37,2013-09-05 23:39:00,
2013-09-05 18:44:00,80.1,68.6,30.12,NE,53,0.0,0.0,68,0.00,CLR,,0.00,WeatherDisplay:10.37,2013-09-05 23:44:00,
2013-09-05 18:49:00,79.8,68.7,30.12,NE,52,0.0,0.0,69,0.00,CLR,,0.00,WeatherDisplay:10.37,2013-09-05 23:49:00,
2013-09-05 18:54:00,79.5,68.4,30.12,NE,52,0.0,0.0,69,0.00,CLR,,0.00,WeatherDisplay:10.37,2013-09-05 23:54:00,
2013-09-05 18:59:00,79.2,68.1,30.12,NE,53,0.0,0.0,69,0.00,CLR,,0.00,WeatherDisplay:10.37,2013-09-05 23:59:00,
2013-09-05 19:04:00,78.7,68.1,30.12,NE,52,0.0,0.0,70,0.00,CLR,,0.00,WeatherDisplay:10.37,2013-09-06 00:04:00,
2013-09-05 19:09:00,78.6,68.0,30.12,NE,53,0.0,0.0,70,0.00,CLR,,0.00,WeatherDisplay:10.37,2013-09-06 00:09:00,
2013-09-05 19:14:00,78.1,67.5,30.12,NE,53,0.0,0.0,70,0.00,CLR,,0.00,WeatherDisplay:10.37,2013-09-06 00:14:00,
2013-09-05 19:19:00,77.7,67.5,30.12,NE,52,0.0,0.0,71,0.00,CLR,,0.00,WeatherDisplay:10.37,2013-09-06 00:19:00,
2013-09-05 19:24:00,77.4,67.3,30.12,NE,52,0.0,0.0,71,0.00,CLR,,0.00,WeatherDisplay:10.37,2013-09-06 00:24:00,
2013-09-05 19:29:00,77.2,67.1,30.12,NE,52,0.0,0.0,71,0.00,CLR,,0.00,WeatherDisplay:10.37,2013-09-06 00:29:00,
2013-09-05 19:34:00,77.0,66.9,30.12,NE,52,0.0,0.0,71,0.00,CLR,,0.00,WeatherDisplay:10.37,2013-09-06 00:34:00,
2013-09-05 19:39:00,76.8,66.7,30.12,NE,52,0.0,0.0,71,0.00,CLR,,0.00,WeatherDisplay:10.37,2013-09-06 00:39:00,
2013-09-05 19:44:00,76.5,66.8,30.13,NE,53,0.0,0.0,72,0.00,CLR,,0.00,WeatherDisplay:10.37,2013-09-06 00:44:00,
2013-09-05 19:49:00,76.3,66.6,30.12,NE,52,0.0,0.0,72,0.00,CLR,,0.00,WeatherDisplay:10.37,2013-09-06 00:49:00,
2013-09-05 19:54:00,76.1,66.4,30.13,NE,52,0.0,0.0,72,0.00,CLR,,0.00,WeatherDisplay:10.37,2013-09-06 00:54:00,
2013-09-05 19:59:00,75.8,66.1,30.13,NE,52,0.0,0.0,72,0.00,CLR,,0.00,WeatherDisplay:10.37,2013-09-06 00:59:00,
2013-09-05 20:04:00,75.6,65.5,30.13,NE,52,0.0,0.0,71,0.00,CLR,,0.00,WeatherDisplay:10.37,2013-09-06 01:04:00,
2013-09-05 20:09:00,75.5,65.8,30.13,NE,52,0.0,0.0,72,0.00,CLR,,0.00,WeatherDisplay:10.37,2013-09-06 01:09:00,
2013-09-05 20:14:00,75.2,65.6,30.13,NE,53,0.0,0.0,72,0.00,CLR,,0.00,WeatherDisplay:10.37,2013-09-06 01:14:00,
2013-09-05 20:19:00,75.0,65.0,30.13,NE,52,0.0,0.0,71,0.00,CLR,,0.00,WeatherDisplay:10.37,2013-09-06 01:19:00,
2013-09-05 20:24:00,74.7,64.7,30.14,NE,52,0.0,0.0,71,0.00,CLR,,0.00,WeatherDisplay:10.37,2013-09-06 01:24:00,
2013-09-05 20:29:00,74.5,64.5,30.14,NE,52,0.0,0.0,71,0.00,CLR,,0.00,WeatherDisplay:10.37,2013-09-06 01:29:00,
2013-09-05 20:34:00,74.2,64.2,30.14,NE,52,0.0,0.0,71,0.00,CLR,,0.00,WeatherDisplay:10.37,2013-09-06 01:34:00,
2013-09-05 20:39:00,74.0,63.6,30.14,NE,52,0.0,0.0,70,0.00,CLR,,0.00,WeatherDisplay:10.37,2013-09-06 01:39:00,
2013-09-05 20:44:00,73.8,63.4,30.14,NE,52,0.0,0.0,70,0.00,CLR,,0.00,WeatherDisplay:10.37,2013-09-06 01:44:00,
2013-09-05 20:49:00,73.6,63.2,30.14,NE,52,0.0,0.0,70,0.00,CLR,,0.00,WeatherDisplay:10.37,2013-09-06 01:49:00,
2013-09-05 20:55:00,73.4,63.0,30.14,NE,52,0.0,0.0,70,0.00,CLR,,0.00,WeatherDisplay:10.37,2013-09-06 01:55:00,
2013-09-05 21:00:00,73.3,62.9,30.15,NE,52,0.0,0.0,70,0.00,CLR,,0.00,WeatherDisplay:10.37,2013-09-06 02:00:00,
2013-09-05 21:05:00,73.1,62.7,30.15,NE,52,0.0,0.0,70,0.00,CLR,,0.00,WeatherDisplay:10.37,2013-09-06 02:05:00,
2013-09-05 21:10:00,73.0,62.6,30.15,NE,53,0.0,0.0,70,0.00,CLR,,0.00,WeatherDisplay:10.37,2013-09-06 02:10:00,
2013-09-05 21:15:00,72.9,62.5,30.15,NE,52,0.0,0.0,70,0.00,CLR,,0.00,WeatherDisplay:10.37,2013-09-06 02:15:00,
2013-09-05 21:20:00,72.8,62.4,30.15,NE,52,0.0,0.0,70,0.00,CLR,,0.00,WeatherDisplay:10.37,2013-09-06 02:20:00,
2013-09-05 21:25:00,72.6,62.3,30.15,NE,52,0.0,0.0,70,0.00,CLR,,0.00,WeatherDisplay:10.37,2013-09-06 02:25:00,
2013-09-05 21:30:00,72.6,62.3,30.15,NE,52,0.0,0.0,70,0.00,CLR,,0.00,WeatherDisplay:10.37,2013-09-06 02:30:00,
2013-09-05 21:35:00,72.4,62.1,30.15,NE,52,0.0,0.0,70,0.00,CLR,,0.00,WeatherDisplay:10.37,2013-09-06 02:35:00,
2013-09-05 21:40:00,72.3,62.4,30.15,NE,52,0.0,0.0,71,0.00,CLR,,0.00,WeatherDisplay:10.37,2013-09-06 02:40:00,
2013-09-05 21:45:00,72.3,62.4,30.16,NE,52,0.0,0.0,71,0.00,CLR,,0.00,WeatherDisplay:10.37,2013-09-06 02:45:00,
2013-09-05 21:50:00,72.2,62.3,30.16,NE,52,0.0,0.0,71,0.00,CLR,,0.00,WeatherDisplay:10.37,2013-09-06 02:50:00,
2013-09-05 21:55:00,72.1,61.8,30.16,NE,52,0.0,0.0,70,0.00,CLR,,0.00,WeatherDisplay:10.37,2013-09-06 02:55:00,
2013-09-05 22:00:00,71.9,62.0,30.16,NE,52,0.0,0.0,71,0.00,CLR,,0.00,WeatherDisplay:10.37,2013-09-06 03:00:00,
2013-09-05 22:05:00,71.7,61.8,30.16,NE,52,0.0,0.0,71,0.00,CLR,,0.00,WeatherDisplay:10.37,2013-09-06 03:05:00,
2013-09-05 22:10:00,71.5,61.6,30.16,NE,52,0.0,0.0,71,0.00,CLR,,0.00,WeatherDisplay:10.37,2013-09-06 03:10:00,
2013-09-05 22:15:00,71.3,61.4,30.16,NE,53,0.0,0.0,71,0.00,CLR,,0.00,WeatherDisplay:10.37,2013-09-06 03:15:00,
2013-09-05 22:20:00,71.2,61.3,30.16,NE,52,0.0,0.0,71,0.00,CLR,,0.00,WeatherDisplay:10.37,2013-09-06 03:20:00,
2013-09-05 22:25:00,71.1,61.2,30.16,NE,52,0.0,0.0,71,0.00,CLR,,0.00,WeatherDisplay:10.37,2013-09-06 03:25:00,
2013-09-05 22:30:00,71.0,61.1,30.16,NE,52,0.0,0.0,71,0.00,CLR,,0.00,WeatherDisplay:10.37,2013-09-06 03:30:00,
2013-09-05 22:35:00,70.8,60.9,30.16,NE,52,0.0,0.0,71,0.00,CLR,,0.00,WeatherDisplay:10.37,2013-09-06 03:35:00,
2013-09-05 22:40:00,70.7,60.8,30.16,NE,52,0.0,0.0,71,0.00,CLR,,0.00,WeatherDisplay:10.37,2013-09-06 03:40:00,
2013-09-05 22:45:00,70.6,60.7,30.16,NE,52,0.0,0.0,71,0.00,CLR,,0.00,WeatherDisplay:10.37,2013-09-06 03:45:00,
2013-09-05 22:50:00,70.4,60.5,30.16,NE,52,0.0,0.0,71,0.00,CLR,,0.00,WeatherDisplay:10.37,2013-09-06 03:50:00,
2013-09-05 22:55:00,70.4,60.5,30.16,NE,52,0.0,0.0,71,0.00,CLR,,0.00,WeatherDisplay:10.37,2013-09-06 03:55:00,
2013-09-05 23:00:00,70.3,60.4,30.16,NE,52,0.0,0.0,71,0.00,CLR,,0.00,WeatherDisplay:10.37,2013-09-06 04:00:00,
2013-09-05 23:01:00,70.3,60.4,30.17,NE,52,0.0,0.0,71,0.00,CLR,,0.00,WeatherDisplay:10.37,2013-09-06 04:01:00,
2013-09-05 23:02:00,70.2,60.4,30.17,NE,53,0.0,0.0,71,0.00,CLR,,0.00,WeatherDisplay:10.37,2013-09-06 04:02:00,
2013-09-05 23:07:00,70.0,60.2,30.16,NE,52,0.0,0.0,71,0.00,CLR,,0.00,WeatherDisplay:10.37,2013-09-06 04:07:00,
2013-09-05 23:12:00,69.8,60.0,30.16,NE,52,0.0,0.0,71,0.00,CLR,,0.00,WeatherDisplay:10.37,2013-09-06 04:12:00,
2013-09-05 23:17:00,69.7,59.9,30.16,NE,52,0.0,0.0,71,0.00,CLR,,0.00,WeatherDisplay:10.37,2013-09-06 04:17:00,
2013-09-05 23:22:00,69.5,59.7,30.16,NE,52,0.0,0.0,71,0.00,CLR,,0.00,WeatherDisplay:10.37,2013-09-06 04:22:00,
2013-09-05 23:27:00,69.3,59.5,30.16,NE,52,0.0,0.0,71,0.00,CLR,,0.00,WeatherDisplay:10.37,2013-09-06 04:27:00,
2013-09-05 23:32:00,69.2,59.4,30.16,NE,52,0.0,0.0,71,0.00,CLR,,0.00,WeatherDisplay:10.37,2013-09-06 04:32:00,
2013-09-05 23:37:00,69.1,59.3,30.16,NE,52,0.0,0.0,71,0.00,CLR,,0.00,WeatherDisplay:10.37,2013-09-06 04:37:00,
2013-09-05 23:42:00,68.9,59.1,30.16,NE,52,0.0,0.0,71,0.00,CLR,,0.00,WeatherDisplay:10.37,2013-09-06 04:42:00,
2013-09-05 23:47:00,68.6,58.8,30.16,NE,52,0.0,0.0,71,0.00,CLR,,0.00,WeatherDisplay:10.37,2013-09-06 04:47:00,
2013-09-05 23:52:00,68.5,58.7,30.16,NE,52,0.0,0.0,71,0.00,CLR,,0.00,WeatherDisplay:10.37,2013-09-06 04:52:00,
2013-09-05 23:57:00,68.3,58.1,30.16,NE,52,0.0,0.0,70,0.00,CLR,,0.00,WeatherDisplay:10.37,2013-09-06 04:57:00,